Time;durP1;ratioP1;P1;durP2;ratioP2;P2;SDS_P1;SDS_P2;PMS_P1;PMS_P2;Temp;Humidity;BMP_temperature;BMP_pressure;BME280_temperature;BME280_humidity;BME280_pressure;Samples;Min_cycle;Max_cycle;Signal;HPM_P1;HPM_P2
2022/07/01 00:00:45;;;;;;;10.20;8.30;;;;;;;23.06;64.03;98018.98;105996;1283;137976;-82
2022/07/01 00:03:11;;;;;;;9.60;7.90;;;;;;;23.03;64.07;98015.84;106030;1283;22786;-81
2022/07/01 00:05:37;;;;;;;9.50;8.20;;;;;;;23.02;63.98;98013.72;105932;1283;137768;-81
2022/07/01 00:08:05;;;;;;;9.70;8.10;;;;;;;23.02;64.11;98009.02;107105;1283;22570;-82
2022/07/01 00:10:35;;;;;;;10.20;8.50;;;;;;;23.02;64.12;98008.06;106258;1282;22556;-82
2022/07/01 00:13:19;;;;;;;9.10;8.20;;;;;;;23.03;64.39;98009.56;105817;1284;137601;-81
2022/07/01 00:15:45;;;;;;;14.60;8.60;;;;;;;23.04;64.31;98011.98;105911;1284;24259;-80
2022/07/01 00:18:12;;;;;;;9.10;8.20;;;;;;;23.05;64.16;98014.51;106259;1283;137926;-79
2022/07/01 00:20:39;;;;;;;9.80;8.40;;;;;;;23.04;64.20;98009.94;106293;1283;23068;-79
2022/07/01 00:23:07;;;;;;;;;;;;;;;23.03;64.32;98008.85;106174;1283;22712;-80
2022/07/01 00:25:33;;;;;;;11.50;8.40;;;;;;;22.99;64.51;98007.66;106479;1283;124449;-82
2022/07/01 00:27:59;;;;;;;9.70;8.30;;;;;;;22.96;64.60;98007.48;105952;1284;23191;-80
2022/07/01 00:30:29;;;;;;;9.70;8.70;;;;;;;22.93;64.74;98008.62;105681;1285;137728;-80
2022/07/01 00:32:56;;;;;;;9.60;8.60;;;;;;;22.90;64.76;98004.30;105846;1284;24272;-80
2022/07/01 00:35:22;;;;;;;11.00;8.30;;;;;;;22.87;64.85;98003.70;105630;1285;138707;-80
2022/07/01 00:37:48;;;;;;;10.20;8.10;;;;;;;22.84;65.01;97999.77;106195;1284;24280;-80
2022/07/01 00:40:17;;;;;;;9.10;8.30;;;;;;;22.81;65.02;98000.12;106147;1283;22580;-81
2022/07/01 00:42:50;;;;;;;11.10;8.40;;;;;;;22.78;65.26;97993.60;106053;1283;137524;-80
2022/07/01 00:45:18;;;;;;;10.30;9.20;;;;;;;22.76;65.35;97993.13;106438;1283;22702;-81
2022/07/01 00:47:45;;;;;;;12.60;8.70;;;;;;;22.74;65.38;97989.95;106001;1283;138596;-80
2022/07/01 00:50:18;;;;;;;9.70;8.70;;;;;;;22.70;65.40;97991.47;106196;1283;23413;-81
2022/07/01 00:52:45;;;;;;;10.50;8.40;;;;;;;22.67;65.46;97991.26;106154;1282;22541;-81
2022/07/01 00:55:16;;;;;;;11.60;8.60;;;;;;;22.64;65.66;97990.54;106115;1285;137753;-81
2022/07/01 00:57:45;;;;;;;10.40;8.40;;;;;;;22.62;65.61;97989.17;106037;1283;22708;-80
2022/07/01 01:00:22;;;;;;;9.80;8.10;;;;;;;22.62;65.72;97986.33;106301;1283;137865;-80
2022/07/01 01:03:02;;;;;;;9.60;8.60;;;;;;;22.61;65.70;97986.37;105921;1283;22548;-80
2022/07/01 01:05:29;;;;;;;10.00;9.00;;;;;;;22.60;65.96;97983.44;105985;1283;139766;-80
2022/07/01 01:07:55;;;;;;;9.80;8.50;;;;;;;22.58;66.18;97978.70;106247;1283;22559;-80
2022/07/01 01:10:23;;;;;;;9.80;8.90;;;;;;;22.55;66.15;97975.73;105973;1283;23421;-80
2022/07/01 01:12:52;;;;;;;12.10;8.90;;;;;;;22.53;66.21;97976.92;106023;1284;137621;-80
2022/07/01 01:15:22;;;;;;;9.90;8.80;;;;;;;22.50;66.26;97976.65;106541;1283;22673;-80
2022/07/01 01:17:49;;;;;;;11.20;9.10;;;;;;;22.47;66.22;97979.56;105851;1283;138962;-80
2022/07/01 01:20:16;;;;;;;10.30;8.40;;;;;;;22.46;66.21;97978.39;106357;1283;22767;-80
2022/07/01 01:22:44;;;;;;;11.00;8.50;;;;;;;22.45;66.28;97978.61;106899;1283;23188;-80
2022/07/01 01:25:12;;;;;;;9.40;8.40;;;;;;;22.45;66.21;97976.55;106172;1283;137596;-80
2022/07/01 01:27:41;;;;;;;;;;;;;;;22.45;66.37;97975.40;106036;1283;24437;-80
2022/07/01 01:30:12;;;;;;;10.60;9.00;;;;;;;22.42;66.61;97972.55;105712;1283;123799;-83
2022/07/01 01:32:42;;;;;;;11.50;9.00;;;;;;;22.41;66.56;97973.99;105644;1284;24237;-80
2022/07/01 01:35:10;;;;;;;11.00;9.10;;;;;;;22.39;66.63;97974.68;105916;1284;22723;-82
2022/07/01 01:37:38;;;;;;;12.20;9.60;;;;;;;22.35;66.74;97978.67;105695;1284;139001;-81
2022/07/01 01:40:05;;;;;;;;;;;;;;;22.32;66.85;97979.48;106098;1283;23316;-81
2022/07/01 01:42:31;;;;;;;10.10;8.20;;;;;;;22.28;66.91;97978.75;106268;1284;124530;-80
2022/07/01 01:44:58;;;;;;;11.10;9.50;;;;;;;22.25;67.02;97977.44;105591;1283;918032;-81
2022/07/01 01:47:24;;;;;;;14.80;9.30;;;;;;;22.24;67.10;97975.96;106194;1283;138448;-81
2022/07/01 01:49:54;;;;;;;12.60;9.30;;;;;;;22.22;67.17;97978.81;106112;1284;22689;-80
2022/07/01 01:52:20;;;;;;;10.70;9.10;;;;;;;22.21;67.27;97983.07;105975;1284;22724;-80
2022/07/01 01:54:46;;;;;;;12.50;9.10;;;;;;;22.19;67.29;97985.94;105830;1285;137750;-80
2022/07/01 01:57:13;;;;;;;14.00;10.40;;;;;;;22.18;67.21;97985.02;105989;1284;24300;-80
2022/07/01 01:59:50;;;;;;;10.50;9.30;;;;;;;22.16;67.32;97995.05;106522;1283;138755;-80
2022/07/01 02:02:21;;;;;;;11.30;8.70;;;;;;;22.13;67.45;97994.00;106003;1283;25106;-81
2022/07/01 02:04:48;;;;;;;16.30;9.30;;;;;;;22.07;67.40;97995.98;106169;1283;22582;-81
2022/07/01 02:07:16;;;;;;;;;;;;;;;22.02;67.57;97994.08;106003;1283;137697;-81
2022/07/01 02:09:43;;;;;;;12.10;9.80;;;;;;;21.97;67.81;97993.86;106855;1282;24385;-81
2022/07/01 02:12:09;;;;;;;10.20;9.10;;;;;;;21.92;67.96;97995.58;105809;1284;137768;-81
2022/07/01 02:14:35;;;;;;;10.00;8.90;;;;;;;21.88;68.15;97992.00;106245;1284;24323;-81
2022/07/01 02:17:06;;;;;;;11.10;9.20;;;;;;;21.84;68.28;97996.10;106323;1284;22586;-81
2022/07/01 02:19:35;;;;;;;12.30;9.10;;;;;;;21.81;68.54;97999.06;105474;1287;137892;-81
2022/07/01 02:22:16;;;;;;;13.90;9.20;;;;;;;21.77;68.50;98007.23;106344;1284;22544;-81
2022/07/01 02:24:43;;;;;;;11.50;9.50;;;;;;;21.72;68.59;98010.90;106066;1283;138071;-81
2022/07/01 02:27:10;;;;;;;12.50;9.80;;;;;;;21.69;68.71;98017.65;106126;1283;26522;-80
2022/07/01 02:29:36;;;;;;;13.50;10.40;;;;;;;21.64;68.73;98020.27;105716;1284;137498;-80
2022/07/01 02:32:04;;;;;;;11.40;9.90;;;;;;;21.54;68.93;98016.17;105925;1284;22603;-80
2022/07/01 02:34:33;;;;;;;14.80;9.30;;;;;;;21.43;69.25;98011.19;106256;1284;25397;-80
2022/07/01 02:37:02;;;;;;;11.20;10.00;;;;;;;21.37;69.57;98013.92;105955;1284;139312;-80
2022/07/01 02:39:28;;;;;;;11.10;9.90;;;;;;;21.34;69.82;98015.59;106045;1285;25270;-80
2022/07/01 02:44:35;;;;;;;13.00;10.50;;;;;;;21.34;70.21;98014.73;106028;1283;22597;-80
2022/07/01 02:47:02;;;;;;;12.70;10.80;;;;;;;21.32;70.25;98016.92;106089;1283;22719;-80
2022/07/01 02:49:29;;;;;;;12.40;10.20;;;;;;;21.31;70.33;98016.33;105934;1283;137776;-80
2022/07/01 02:51:55;;;;;;;10.70;9.60;;;;;;;21.33;70.34;98018.16;105895;1283;24342;-80
2022/07/01 02:54:25;;;;;;;13.40;10.30;;;;;;;21.35;70.30;98017.08;106293;1283;137944;-81
2022/07/01 02:56:56;;;;;;;11.30;10.00;;;;;;;21.38;70.33;98016.81;105952;1284;22554;-81
2022/07/01 02:59:22;;;;;;;12.00;10.40;;;;;;;21.41;70.17;98019.33;106474;1283;138365;-81
2022/07/01 03:01:51;;;;;;;11.40;10.10;;;;;;;21.41;70.37;98022.06;106331;1283;24290;-80
2022/07/01 03:04:20;;;;;;;13.80;10.90;;;;;;;21.40;70.41;98022.66;105792;1283;22554;-80
2022/07/01 03:06:57;;;;;;;13.10;10.50;;;;;;;21.38;70.34;98021.71;105451;1287;138177;-81
2022/07/01 03:09:34;;;;;;;13.30;10.10;;;;;;;21.33;70.28;98022.33;105779;1284;23999;-80
2022/07/01 03:12:24;;;;;;;14.50;10.10;;;;;;;21.29;70.52;98021.45;105802;1284;138675;-81
2022/07/01 03:14:51;;;;;;;14.90;10.60;;;;;;;21.28;70.72;98021.25;105694;1284;22581;-81
2022/07/01 03:17:29;;;;;;;13.90;10.30;;;;;;;21.29;70.87;98027.09;105769;1286;138375;-81
2022/07/01 03:19:56;;;;;;;15.80;10.50;;;;;;;21.30;70.92;98024.25;105709;1284;24312;-81
2022/07/01 03:22:27;;;;;;;15.70;10.10;;;;;;;21.31;71.05;98022.59;106086;1283;22588;-81
2022/07/01 03:24:58;;;;;;;13.00;9.20;;;;;;;21.33;71.20;98022.43;105543;1283;138473;-81
2022/07/01 03:27:28;;;;;;;;;;;;;;;21.36;71.19;98019.16;105746;1285;25235;-81
2022/07/01 03:29:54;;;;;;;13.50;10.50;;;;;;;21.36;71.37;98019.59;105549;1284;124223;-81
2022/07/01 03:32:26;;;;;;;11.30;10.10;;;;;;;21.36;71.23;98019.10;105872;1283;25284;-81
2022/07/01 03:34:54;;;;;;;11.70;10.50;;;;;;;21.36;71.31;98013.08;105990;1284;26551;-81
2022/07/01 03:37:23;;;;;;;13.10;10.70;;;;;;;21.36;71.39;98015.45;106026;1284;138057;-81
2022/07/01 03:39:53;;;;;;;11.80;9.40;;;;;;;21.38;71.68;98013.63;105970;1284;23338;-81
2022/07/01 03:42:19;;;;;;;10.80;9.60;;;;;;;21.40;71.78;98014.70;106548;1284;137989;-81
2022/07/01 03:44:46;;;;;;;12.00;9.30;;;;;;;21.45;71.73;98023.16;106081;1284;24256;-81
2022/07/01 03:47:14;;;;;;;12.70;9.80;;;;;;;21.51;71.80;98024.81;106058;1284;22563;-82
2022/07/01 03:49:40;;;;;;;10.40;9.40;;;;;;;21.57;71.69;98030.56;106532;1284;137847;-82
2022/07/01 03:52:09;;;;;;;11.10;10.00;;;;;;;21.60;71.62;98030.38;106288;1284;25320;-82
2022/07/01 03:54:39;;;;;;;12.70;9.50;;;;;;;21.64;71.56;98031.70;105691;1284;138398;-80
2022/07/01 03:57:08;;;;;;;10.90;9.80;;;;;;;21.68;71.48;98036.56;105811;1283;22592;-83
2022/07/01 03:59:43;;;;;;;11.40;10.40;;;;;;;21.72;71.62;98037.58;105810;1285;138035;-81
2022/07/01 04:02:09;;;;;;;11.00;9.90;;;;;;;21.78;71.50;98041.53;105998;1284;24229;-81
2022/07/01 04:04:38;;;;;;;11.80;10.60;;;;;;;21.84;71.23;98043.86;105890;1283;24482;-82
2022/07/01 04:07:06;;;;;;;11.90;10.20;;;;;;;21.89;71.14;98038.84;105847;1284;137738;-81
2022/07/01 04:09:33;;;;;;;21.30;10.70;;;;;;;21.93;71.17;98040.54;106051;1284;23041;-81
2022/07/01 04:12:01;;;;;;;10.80;9.70;;;;;;;21.97;71.12;98042.11;105393;1284;138736;-82
2022/07/01 04:14:27;;;;;;;20.20;11.20;;;;;;;21.99;70.87;98040.80;105993;1283;23762;-82
2022/07/01 04:16:56;;;;;;;14.60;10.70;;;;;;;21.98;70.92;98039.95;106065;1284;24417;-82
2022/07/01 04:19:31;;;;;;;19.60;11.10;;;;;;;21.98;71.08;98039.34;105687;1283;137650;-82
2022/07/01 04:24:40;;;;;;;13.20;10.70;;;;;;;22.03;71.59;98038.89;105875;1284;137782;-81
2022/07/01 04:27:09;;;;;;;17.20;9.90;;;;;;;22.09;71.46;98037.58;105789;1284;22574;-81
2022/07/01 04:29:43;;;;;;;12.70;10.30;;;;;;;22.19;71.25;98041.30;105576;1284;138528;-81
2022/07/01 04:32:10;;;;;;;17.00;10.90;;;;;;;22.26;71.03;98041.70;105760;1284;22568;-81
2022/07/01 04:34:36;;;;;;;13.40;11.20;;;;;;;22.33;70.77;98044.36;105891;1284;23397;-81
2022/07/01 04:37:05;;;;;;;14.10;11.20;;;;;;;22.39;70.78;98046.52;105844;1283;137824;-81
2022/07/01 04:39:31;;;;;;;15.90;11.50;;;;;;;22.45;70.73;98045.20;106070;1284;22643;-81
2022/07/01 04:42:01;;;;;;;13.00;10.50;;;;;;;22.51;70.81;98040.76;106470;1283;138112;-81
2022/07/01 04:44:37;;;;;;;14.20;10.90;;;;;;;22.59;70.87;98039.95;105527;1284;22709;-81
2022/07/01 04:47:04;;;;;;;13.70;10.40;;;;;;;22.66;70.67;98040.77;106098;1284;23057;-81
2022/07/01 04:49:31;;;;;;;14.70;11.10;;;;;;;22.73;70.46;98044.55;105606;1284;137965;-80
2022/07/01 04:51:59;;;;;;;12.30;10.90;;;;;;;22.78;70.39;98042.00;105908;1284;24475;-83
2022/07/01 04:54:25;;;;;;;13.70;11.10;;;;;;;22.85;70.08;98046.38;106045;1283;139140;-84
2022/07/01 04:56:54;;;;;;;;;;;;;;;22.89;69.79;98044.98;106210;1284;26285;-81
2022/07/01 04:59:26;;;;;;;15.90;11.20;;;;;;;22.94;69.54;98046.35;106323;1284;23210;-83
2022/07/01 05:01:54;;;;;;;13.80;10.70;;;;;;;23.00;69.34;98049.48;106227;1283;22603;-81
2022/07/01 05:04:23;;;;;;;14.80;10.60;;;;;;;23.04;69.42;98052.31;106479;1284;22573;-81
2022/07/01 05:07:01;;;;;;;15.40;10.40;;;;;;;23.12;69.09;98052.08;106157;1283;138257;-81
2022/07/01 05:09:27;;;;;;;12.60;10.80;;;;;;;23.19;68.83;98047.09;106107;1284;25343;-81
2022/07/01 05:11:57;;;;;;;15.50;10.50;;;;;;;23.26;68.71;98046.15;105908;1284;137975;-80
2022/07/01 05:14:25;;;;;;;11.80;10.30;;;;;;;23.32;68.43;98042.11;105959;1284;23495;-81
2022/07/01 05:16:52;;;;;;;11.60;10.20;;;;;;;23.39;68.24;98039.41;106109;1284;22560;-81
2022/07/01 05:22:00;;;;;;;14.90;11.00;;;;;;;23.51;67.83;98037.86;106152;1283;22637;-81
2022/07/01 05:24:30;;;;;;;17.10;12.30;;;;;;;23.55;67.55;98037.06;105682;1284;138042;-80
2022/07/01 05:27:00;;;;;;;12.10;10.60;;;;;;;23.60;67.54;98037.10;106018;1283;24426;-80
2022/07/01 05:29:30;;;;;;;13.10;10.90;;;;;;;23.64;67.31;98037.98;105755;1284;138759;-80
2022/07/01 05:31:56;;;;;;;13.40;10.60;;;;;;;23.71;67.18;98038.36;106363;1284;22544;-81
2022/07/01 05:34:23;;;;;;;12.10;10.90;;;;;;;23.78;67.01;98040.36;105868;1283;22590;-81
2022/07/01 05:36:49;;;;;;;16.60;11.10;;;;;;;23.85;66.97;98038.48;105999;1283;137753;-80
2022/07/01 05:39:19;;;;;;;13.50;11.00;;;;;;;23.92;66.83;98033.64;106447;1283;22722;-81
2022/07/01 05:41:46;;;;;;;14.90;11.20;;;;;;;23.98;66.44;98030.30;105969;1283;138520;-81
2022/07/01 05:44:12;;;;;;;13.60;11.40;;;;;;;24.05;66.47;98028.29;105979;1284;25527;-81
2022/07/01 05:46:38;;;;;;;12.60;10.80;;;;;;;24.12;66.43;98027.09;106088;1284;22563;-81
2022/07/01 05:49:05;;;;;;;13.70;10.90;;;;;;;24.18;66.45;98029.67;105861;1283;137653;-81
2022/07/01 05:51:32;;;;;;;13.50;11.20;;;;;;;24.21;66.31;98032.58;106441;1283;22578;-80
2022/07/01 05:54:03;;;;;;;13.40;10.90;;;;;;;24.25;66.36;98034.95;105710;1283;138003;-81
2022/07/01 05:56:33;;;;;;;15.50;10.60;;;;;;;24.31;66.32;98036.26;106568;1284;23167;-81
2022/07/01 05:59:01;;;;;;;12.40;11.10;;;;;;;24.39;66.00;98035.56;106540;1283;25281;-81
2022/07/01 06:01:30;;;;;;;15.90;10.80;;;;;;;24.48;65.79;98030.17;106270;1283;138481;-81
2022/07/01 06:04:01;;;;;;;15.50;11.40;;;;;;;24.56;65.77;98032.63;105969;1284;23229;-81
2022/07/01 06:06:29;;;;;;;16.80;11.90;;;;;;;24.61;65.58;98026.13;106551;1284;137858;-81
2022/07/01 06:09:01;;;;;;;15.40;11.40;;;;;;;24.71;65.50;98031.93;106130;1284;22698;-81
2022/07/01 06:11:52;;;;;;;20.50;12.20;;;;;;;24.81;65.45;98030.48;105922;1284;137918;-81
2022/07/01 06:14:19;;;;;;;14.40;10.80;;;;;;;24.89;64.65;98032.31;106381;1283;25411;-81
2022/07/01 06:16:45;;;;;;;15.70;10.90;;;;;;;24.96;64.44;98032.64;106246;1283;22730;-81
2022/07/01 06:19:20;;;;;;;15.80;10.50;;;;;;;25.03;64.35;98032.93;106020;1283;138123;-81
2022/07/01 06:21:46;;;;;;;16.10;10.20;;;;;;;25.12;63.51;98036.38;106438;1283;26606;-81
2022/07/01 06:24:16;;;;;;;13.50;10.20;;;;;;;25.20;63.14;98037.56;106133;1283;138183;-81
2022/07/01 06:26:42;;;;;;;16.50;10.20;;;;;;;25.26;62.72;98034.81;106498;1284;22852;-81
2022/07/01 06:29:23;;;;;;;17.80;10.70;;;;;;;25.33;62.54;98036.88;106094;1284;22603;-81
2022/07/01 06:31:49;;;;;;;16.90;10.60;;;;;;;25.42;62.35;98037.98;106260;1283;138703;-81
2022/07/01 06:34:18;;;;;;;12.80;10.10;;;;;;;25.49;61.98;98033.27;106357;1283;25411;-82
2022/07/01 06:36:44;;;;;;;13.80;10.40;;;;;;;25.57;61.91;98032.47;106494;1283;137954;-81
2022/07/01 06:39:10;;;;;;;13.90;10.10;;;;;;;25.66;61.84;98030.07;106194;1282;22561;-81
2022/07/01 06:41:36;;;;;;;15.40;10.20;;;;;;;25.72;61.34;98027.93;106785;1283;138100;-81
2022/07/01 06:44:07;;;;;;;12.90;10.20;;;;;;;25.80;60.96;98028.77;106455;1283;22716;-81
2022/07/01 06:46:33;;;;;;;12.80;10.00;;;;;;;25.88;60.92;98026.23;106070;1283;22579;-81
2022/07/01 06:49:00;;;;;;;12.10;10.00;;;;;;;25.97;60.72;98022.41;105992;1284;138444;-81
2022/07/01 06:51:27;;;;;;;11.30;10.10;;;;;;;26.06;60.46;98020.42;106075;1284;25449;-81
2022/07/01 06:53:53;;;;;;;10.90;9.80;;;;;;;26.16;59.68;98014.06;106041;1283;138149;-81
2022/07/01 06:56:20;;;;;;;14.10;9.10;;;;;;;26.28;58.60;98012.29;106438;1283;22576;-81
2022/07/01 06:58:46;;;;;;;10.60;9.40;;;;;;;26.39;58.03;98008.72;106321;1283;25544;-81
2022/07/01 07:01:12;;;;;;;12.90;8.80;;;;;;;26.50;57.67;98010.98;106169;1283;138039;-81
2022/07/01 07:03:39;;;;;;;12.00;8.60;;;;;;;26.62;57.27;98008.34;106312;1281;25389;-81
2022/07/01 07:06:05;;;;;;;13.10;8.80;;;;;;;26.75;56.43;98018.38;106122;1283;138659;-81
2022/07/01 07:08:32;;;;;;;11.90;8.80;;;;;;;26.87;56.15;98018.73;106201;1283;23202;-81
2022/07/01 07:10:59;;;;;;;10.80;9.30;;;;;;;26.98;55.69;98020.81;106447;1283;22703;-81
2022/07/01 07:13:26;;;;;;;13.70;9.60;;;;;;;27.10;54.85;98019.50;106385;1283;138758;-81
2022/07/01 07:15:52;;;;;;;11.20;8.60;;;;;;;27.22;54.65;98022.02;106539;1283;25358;-81
2022/07/01 07:18:19;;;;;;;9.80;7.90;;;;;;;27.35;54.28;98022.91;106124;1283;137716;-81
2022/07/01 07:20:47;;;;;;;13.80;8.40;;;;;;;27.48;53.37;98020.17;106352;1283;26452;-80
2022/07/01 07:23:14;;;;;;;10.10;8.70;;;;;;;27.61;52.71;98017.38;106210;1283;22559;-81
2022/07/01 07:25:40;;;;;;;9.80;8.00;;;;;;;27.73;52.69;98017.39;106335;1283;137272;-81
2022/07/01 07:28:07;;;;;;;11.40;7.50;;;;;;;27.86;52.48;98012.21;105891;1284;24406;-80
2022/07/01 07:30:33;;;;;;;12.00;8.60;;;;;;;27.99;52.35;98012.95;106602;1283;138719;-81
2022/07/01 07:33:00;;;;;;;20.40;9.40;;;;;;;28.12;52.07;98019.49;106111;1284;22569;-81
2022/07/01 07:35:26;;;;;;;15.40;9.30;;;;;;;28.25;51.93;98020.77;106304;1283;139219;-81
2022/07/01 07:37:52;;;;;;;11.10;9.00;;;;;;;28.36;51.57;98020.30;107197;1283;22588;-81
2022/07/01 07:40:19;;;;;;;10.60;9.40;;;;;;;28.49;51.15;98020.52;106264;1283;22576;-81
2022/07/01 07:42:59;;;;;;;11.90;8.40;;;;;;;28.63;51.18;98019.74;105875;1284;137860;-81
2022/07/01 07:45:26;;;;;;;15.90;8.40;;;;;;;28.76;50.23;98024.89;106593;1284;22615;-83
2022/07/01 07:47:54;;;;;;;9.10;8.20;;;;;;;28.88;49.58;98022.83;106073;1284;138068;-80
2022/07/01 07:50:23;;;;;;;11.80;8.50;;;;;;;29.01;49.21;98025.34;106319;1284;25280;-80
2022/07/01 07:52:49;;;;;;;8.90;8.00;;;;;;;29.14;48.51;98024.90;106175;1284;23330;-81
2022/07/01 07:55:16;;;;;;;12.00;9.10;;;;;;;29.26;47.75;98027.00;106055;1284;137598;-81
2022/07/01 07:57:42;;;;;;;11.00;8.30;;;;;;;29.38;47.81;98023.63;105815;1284;22632;-80
2022/07/01 08:00:12;;;;;;;9.70;8.70;;;;;;;29.51;47.52;98027.70;106235;1283;138082;-81
2022/07/01 08:02:41;;;;;;;10.10;8.00;;;;;;;29.64;47.27;98025.23;106215;1283;23537;-80
2022/07/01 08:05:09;;;;;;;9.20;8.30;;;;;;;29.78;47.28;98027.09;106425;1283;25339;-80
2022/07/01 08:07:40;;;;;;;10.00;8.50;;;;;;;29.93;46.73;98031.91;106046;1283;137750;-80
2022/07/01 08:10:10;;;;;;;9.90;7.90;;;;;;;30.09;46.21;98034.17;106027;1283;22575;-81
2022/07/01 08:12:37;;;;;;;9.70;7.50;;;;;;;30.24;46.31;98029.58;107082;1283;137614;-81
2022/07/01 08:15:04;;;;;;;11.10;8.40;;;;;;;30.41;45.16;98029.59;106031;1283;24257;-80
2022/07/01 08:17:30;;;;;;;13.40;7.60;;;;;;;30.56;44.99;98027.39;106059;1283;140170;-80
2022/07/01 08:19:57;;;;;;;11.50;8.20;;;;;;;30.72;44.98;98025.58;106287;1283;24263;-80
2022/07/01 08:22:23;;;;;;;9.70;7.30;;;;;;;30.86;43.99;98026.00;106332;1283;22623;-81
2022/07/01 08:24:50;;;;;;;9.00;7.40;;;;;;;31.00;43.04;98021.54;106463;1282;137508;-80
2022/07/01 08:27:16;;;;;;;9.80;7.20;;;;;;;31.11;42.39;98022.65;106093;1283;22843;-80
2022/07/01 08:29:43;;;;;;;11.50;7.20;;;;;;;31.24;42.42;98024.58;106418;1284;137998;-80
2022/07/01 08:32:09;;;;;;;13.90;6.80;;;;;;;31.36;42.11;98019.08;106209;1284;23262;-80
2022/07/01 08:34:35;;;;;;;11.90;7.80;;;;;;;31.49;41.12;98017.06;106080;1283;22833;-80
2022/07/01 08:37:04;;;;;;;10.80;7.30;;;;;;;31.62;41.05;98017.93;105929;1283;137794;-80
2022/07/01 08:39:30;;;;;;;9.00;7.10;;;;;;;31.75;41.30;98012.89;105991;1283;22823;-81
2022/07/01 08:42:11;;;;;;;12.60;7.60;;;;;;;31.91;40.16;98011.09;106130;1283;138261;-81
2022/07/01 08:44:38;;;;;;;11.00;7.60;;;;;;;32.02;39.84;98014.26;106211;1283;25538;-81
2022/07/01 08:47:04;;;;;;;8.90;7.40;;;;;;;32.17;39.73;98012.85;106298;1283;23216;-80
2022/07/01 08:49:31;;;;;;;9.90;7.20;;;;;;;32.30;39.53;98012.22;106002;1283;137513;-81
2022/07/01 08:52:00;;;;;;;9.60;7.20;;;;;;;32.44;39.53;98008.44;106053;1284;22828;-81
2022/07/01 08:54:26;;;;;;;10.20;7.30;;;;;;;32.56;39.69;98011.75;106077;1283;137988;-80
2022/07/01 08:56:52;;;;;;;9.10;7.10;;;;;;;32.71;39.68;98011.44;106293;1283;23043;-80
2022/07/01 08:59:25;;;;;;;10.30;7.10;;;;;;;32.85;38.84;98008.59;106048;1283;22566;-81
2022/07/01 09:02:04;;;;;;;7.90;7.20;;;;;;;33.01;38.88;98009.70;106485;1283;22560;-80
2022/07/01 09:04:31;;;;;;;8.30;7.50;;;;;;;33.15;38.65;98008.45;106212;1283;24433;-80
2022/07/01 09:07:08;;;;;;;8.30;7.20;;;;;;;33.28;38.14;98010.28;105850;1283;137933;-80
2022/07/01 09:09:37;;;;;;;10.30;7.80;;;;;;;33.42;37.96;98007.48;106029;1284;22568;-81
2022/07/01 09:12:05;;;;;;;10.10;8.60;;;;;;;33.52;38.03;98010.67;105639;1284;138143;-80
2022/07/01 09:14:33;;;;;;;11.00;8.00;;;;;;;33.65;37.87;98009.42;106110;1282;23045;-81
2022/07/01 09:17:05;;;;;;;10.00;7.70;;;;;;;33.78;37.42;98007.83;106379;1283;22733;-80
2022/07/01 09:19:37;;;;;;;11.80;7.60;;;;;;;33.94;36.71;98013.08;105750;1284;138676;-80
2022/07/01 09:22:18;;;;;;;12.20;8.10;;;;;;;34.08;36.22;98014.84;106406;1283;25225;-80
2022/07/01 09:24:44;;;;;;;14.90;8.20;;;;;;;34.21;36.27;98014.05;106211;1283;138939;-80
2022/07/01 09:27:13;;;;;;;10.20;8.50;;;;;;;34.37;36.65;98015.86;105949;1283;25270;-81
2022/07/01 09:29:45;;;;;;;12.60;8.20;;;;;;;34.51;35.94;98015.52;106039;1283;139301;-80
2022/07/01 09:32:14;;;;;;;12.70;8.70;;;;;;;34.62;35.79;98017.52;106116;1283;24364;-80
2022/07/01 09:34:51;;;;;;;14.50;8.80;;;;;;;34.77;35.64;98011.20;106157;1282;22563;-80
2022/07/01 09:37:19;;;;;;;9.00;8.20;;;;;;;34.96;35.88;98013.03;106115;1284;137950;-80
2022/07/01 09:39:48;;;;;;;9.70;7.80;;;;;;;35.12;35.01;98008.24;106201;1283;22685;-81
2022/07/01 09:42:18;;;;;;;9.70;7.50;;;;;;;35.25;35.06;98009.74;105933;1283;138511;-81
2022/07/01 09:45:06;;;;;;;11.70;8.30;;;;;;;35.38;34.98;98014.60;106191;1283;24351;-81
2022/07/01 09:47:34;;;;;;;9.70;8.30;;;;;;;35.57;34.44;98008.05;106025;1282;137916;-80
2022/07/01 09:50:03;;;;;;;12.60;7.40;;;;;;;35.70;34.03;98006.44;106297;1283;22804;-80
2022/07/01 09:52:29;;;;;;;7.50;6.80;;;;;;;35.86;33.37;98002.42;106117;1284;22751;-80
2022/07/01 09:54:56;;;;;;;7.80;7.10;;;;;;;36.00;32.99;97999.15;105897;1284;137671;-80
2022/07/01 09:57:22;;;;;;;11.50;8.50;;;;;;;36.14;33.17;97998.95;105964;1284;23114;-80
2022/07/01 09:59:50;;;;;;;10.70;6.60;;;;;;;36.31;32.60;98001.38;106057;1283;138016;-81
2022/07/01 10:02:21;;;;;;;9.30;7.20;;;;;;;36.46;32.28;97998.46;106424;1283;23257;-80
2022/07/01 10:04:52;;;;;;;9.70;7.00;;;;;;;36.58;31.69;97998.17;105960;1283;22553;-76
2022/07/01 10:07:42;;;;;;;9.40;7.00;;;;;;;36.73;32.03;97998.16;106117;1283;137925;-77
2022/07/01 10:10:48;;;;;;;14.00;7.70;;;;;;;36.89;32.20;97997.90;105774;1283;22692;-80
2022/07/01 10:13:17;;;;;;;13.20;7.00;;;;;;;37.00;30.65;97995.73;105874;1283;137845;-79
2022/07/01 10:15:46;;;;;;;16.40;8.10;;;;;;;37.07;30.05;97993.33;105337;1283;25534;-78
2022/07/01 10:18:21;;;;;;;9.70;6.70;;;;;;;37.15;29.95;97988.50;105599;1283;137788;-81
2022/07/01 10:20:48;;;;;;;12.20;7.60;;;;;;;37.20;30.27;97984.91;105969;1283;24313;-83
2022/07/01 10:23:15;;;;;;;15.50;7.90;;;;;;;37.27;30.21;97988.11;105945;1283;24239;-81
2022/07/01 10:25:50;;;;;;;9.30;7.30;;;;;;;37.35;29.85;97982.59;105911;1283;137711;-79
2022/07/01 10:28:16;;;;;;;15.30;8.20;;;;;;;37.33;29.72;97986.27;106082;1283;22674;-82
2022/07/01 10:31:02;;;;;;;14.40;8.60;;;;;;;37.17;30.10;97981.71;106257;1283;140601;-81
2022/07/01 10:33:42;;;;;;;12.80;8.30;;;;;;;37.05;30.24;97981.63;105997;1283;22736;-82
2022/07/01 10:36:13;;;;;;;15.40;7.90;;;;;;;36.86;30.53;97977.52;105706;1283;138730;-80
2022/07/01 10:39:06;;;;;;;12.90;7.50;;;;;;;36.81;30.73;97981.17;106255;1283;22865;-81
2022/07/01 10:41:59;;;;;;;9.90;7.60;;;;;;;36.80;30.91;97976.73;106170;1283;138370;-84
2022/07/01 10:44:27;;;;;;;10.70;7.60;;;;;;;36.83;31.58;97975.95;106239;1283;22579;-81
2022/07/01 10:47:04;;;;;;;9.00;7.50;;;;;;;36.79;30.76;97964.34;106659;1283;22597;-84
2022/07/01 10:49:36;;;;;;;12.30;8.20;;;;;;;36.70;31.29;97960.39;105879;1283;138099;-80
2022/07/01 10:52:07;;;;;;;15.40;8.10;;;;;;;36.62;31.63;97967.05;105953;1283;30597;-83
2022/07/01 10:54:34;;;;;;;8.60;7.70;;;;;;;36.48;31.38;97965.03;105860;1283;139176;-82
2022/07/01 10:57:20;;;;;;;12.20;7.80;;;;;;;36.16;31.12;97962.48;107504;1283;24369;-82
2022/07/01 10:59:53;;;;;;;10.60;8.30;;;;;;;35.78;32.28;97962.30;106735;1283;138647;-82
2022/07/01 11:02:22;;;;;;;11.60;7.80;;;;;;;35.45;32.28;97968.15;106743;1283;30611;-80
2022/07/01 11:04:52;;;;;;;9.30;7.80;;;;;;;35.19;32.61;97960.94;107040;1283;22534;-80
2022/07/01 11:07:19;;;;;;;12.80;8.20;;;;;;;35.07;33.44;97963.10;107162;1283;138680;-80
2022/07/01 11:09:45;;;;;;;12.50;8.80;;;;;;;34.94;33.07;97957.41;106724;1283;22572;-80
2022/07/01 11:12:15;;;;;;;9.50;7.50;;;;;;;34.86;33.28;97953.05;107144;1283;138443;-81
2022/07/01 11:14:41;;;;;;;13.70;8.40;;;;;;;34.80;33.49;97953.77;106259;1284;23259;-80
2022/07/01 11:17:09;;;;;;;10.90;8.20;;;;;;;34.89;33.91;97951.64;106540;1284;22630;-80
2022/07/01 11:19:36;;;;;;;13.10;7.90;;;;;;;35.24;33.47;97948.84;106651;1284;137836;-80
2022/07/01 11:22:05;;;;;;;11.40;7.70;;;;;;;35.61;32.76;97951.20;106096;1283;24444;-80
2022/07/01 11:24:32;;;;;;;10.60;8.00;;;;;;;35.98;31.79;97947.34;106597;1283;138631;-80
2022/07/01 11:27:07;;;;;;;9.70;7.30;;;;;;;36.33;31.18;97947.63;106483;1282;23980;-80
2022/07/01 11:29:34;;;;;;;11.40;8.00;;;;;;;36.63;31.24;97939.89;106730;1284;138958;-81
2022/07/01 11:32:00;;;;;;;11.30;7.30;;;;;;;36.71;30.95;97938.95;106818;1284;22629;-81